Time;durP1;ratioP1;P1;durP2;ratioP2;P2;SDS_P1;SDS_P2;PMS_P1;PMS_P2;Temp;Humidity;BMP_temperature;BMP_pressure;BME280_temperature;BME280_humidity;BME280_pressure;Samples;Min_cycle;Max_cycle;Signal;HPM_P1;HPM_P2
2021/06/17 00:00:04;;;;;;;7.35;5.15;;;19.30;99.90;;;;;;5085174;28;20047;-87
2021/06/17 00:02:30;;;;;;;9.18;5.32;;;19.30;99.90;;;;;;5080754;28;20037;-87
2021/06/17 00:04:56;;;;;;;10.57;5.40;;;19.30;99.90;;;;;;5089912;28;20100;-88
2021/06/17 00:07:22;;;;;;;10.65;4.93;;;19.40;99.90;;;;;;5073288;28;20084;-87
2021/06/17 00:09:47;;;;;;;12.43;6.32;;;19.40;99.90;;;;;;5090840;28;20514;-87
2021/06/17 00:12:13;;;;;;;12.35;5.43;;;19.40;99.90;;;;;;5073969;28;20449;-88
2021/06/17 00:14:39;;;;;;;7.68;5.78;;;19.40;99.90;;;;;;5073303;28;20044;-87
2021/06/17 00:17:06;;;;;;;13.70;5.55;;;19.40;99.90;;;;;;5081337;28;20041;-88
2021/06/17 00:19:32;;;;;;;11.70;5.70;;;19.40;99.90;;;;;;5090868;28;20124;-87
2021/06/17 00:21:58;;;;;;;5.40;4.90;;;19.40;99.90;;;;;;5083898;28;20033;-87
2021/06/17 00:24:24;;;;;;;9.35;5.90;;;19.30;99.90;;;;;;5067074;28;20054;-89
2021/06/17 00:26:53;;;;;;;8.75;6.40;;;19.30;99.90;;;;;;5076933;28;20036;-88
2021/06/17 00:29:19;;;;;;;8.48;5.68;;;19.30;99.90;;;;;;5090672;28;20068;-88
2021/06/17 00:31:46;;;;;;;9.90;5.95;;;19.30;99.90;;;;;;5085305;28;20395;-87
2021/06/17 00:34:11;;;;;;;13.18;6.28;;;19.30;99.90;;;;;;5087527;28;20041;-89
2021/06/17 00:36:38;;;;;;;13.38;6.78;;;19.20;99.90;;;;;;5084486;28;20558;-88
2021/06/17 00:39:09;;;;;;;11.35;6.43;;;19.30;99.90;;;;;;5079733;28;20052;-89
2021/06/17 00:41:36;;;;;;;12.38;7.43;;;19.20;99.90;;;;;;5072010;28;20395;-88
2021/06/17 00:44:03;;;;;;;9.90;6.75;;;19.30;99.90;;;;;;5071799;28;20033;-88
2021/06/17 00:46:29;;;;;;;13.02;7.72;;;19.20;99.90;;;;;;5084446;28;20071;-87
2021/06/17 00:48:55;;;;;;;9.93;6.85;;;19.20;99.90;;;;;;5089854;28;20064;-87
2021/06/17 00:51:20;;;;;;;15.13;7.85;;;19.20;99.90;;;;;;5078882;28;20036;-87
2021/06/17 00:53:46;;;;;;;13.40;6.88;;;19.20;99.90;;;;;;5070690;28;20410;-87
2021/06/17 00:56:12;;;;;;;13.57;7.22;;;19.20;99.90;;;;;;5081879;28;20041;-87
2021/06/17 00:58:38;;;;;;;9.27;7.63;;;19.20;99.90;;;;;;5066364;28;20039;-87
2021/06/17 01:01:04;;;;;;;8.80;7.90;;;19.20;99.90;;;;;;5060447;28;20152;-87
2021/06/17 01:03:30;;;;;;;15.20;7.65;;;19.10;99.90;;;;;;5088886;28;20048;-87
2021/06/17 01:05:56;;;;;;;11.90;7.97;;;19.10;99.90;;;;;;5070530;28;20043;-87
2021/06/17 01:08:48;;;;;;;14.23;8.10;;;19.10;99.90;;;;;;5063491;28;20044;-87
2021/06/17 01:11:41;;;;;;;14.25;8.75;;;19.00;99.90;;;;;;5075746;28;20048;-87
2021/06/17 01:14:24;;;;;;;11.32;7.43;;;19.00;99.90;;;;;;5073545;28;20090;-87
2021/06/17 01:17:02;;;;;;;11.82;7.35;;;18.90;99.90;;;;;;5069771;28;20123;-87
2021/06/17 01:19:31;;;;;;;11.85;7.15;;;18.80;99.90;;;;;;5068631;28;20040;-87
2021/06/17 01:22:02;;;;;;;14.00;8.13;;;18.80;99.90;;;;;;5069408;28;20052;-87
2021/06/17 01:24:37;;;;;;;10.20;5.82;;;18.70;99.90;;;;;;5082418;28;20059;-87
2021/06/17 01:27:25;;;;;;;13.55;6.75;;;18.70;99.90;;;;;;5069328;28;20041;-87
2021/06/17 01:30:00;;;;;;;16.42;7.28;;;18.60;99.90;;;;;;5084924;28;20203;-87
2021/06/17 01:32:27;;;;;;;12.35;7.00;;;18.60;99.90;;;;;;5070672;28;20369;-87
2021/06/17 01:34:54;;;;;;;13.50;8.25;;;18.60;99.90;;;;;;5083516;28;20052;-87
2021/06/17 01:37:22;;;;;;;14.20;8.88;;;18.50;99.90;;;;;;5079442;28;20122;-89
2021/06/17 01:39:50;;;;;;;16.45;8.82;;;18.40;99.90;;;;;;5086678;28;20040;-87
2021/06/17 01:42:17;;;;;;;16.35;9.23;;;18.40;99.90;;;;;;5077789;28;20059;-87
2021/06/17 01:44:45;;;;;;;14.65;9.32;;;18.30;99.90;;;;;;5069660;28;20115;-87
2021/06/17 01:47:13;;;;;;;15.02;9.57;;;18.30;99.90;;;;;;5077049;28;20044;-88
2021/06/17 01:49:40;;;;;;;14.20;8.38;;;18.30;99.90;;;;;;5087453;28;20032;-88
2021/06/17 01:52:07;;;;;;;14.13;8.00;;;18.20;99.90;;;;;;5041954;28;20036;-87
2021/06/17 01:54:33;;;;;;;8.45;7.63;;;18.20;99.90;;;;;;5087818;28;20036;-88
2021/06/17 01:57:01;;;;;;;14.07;7.63;;;18.10;99.90;;;;;;5088704;28;20044;-87
2021/06/17 01:59:30;;;;;;;13.32;7.88;;;18.10;99.90;;;;;;5077922;28;20147;-87
2021/06/17 02:01:58;;;;;;;13.63;8.65;;;18.00;99.90;;;;;;5079655;28;20086;-88
2021/06/17 02:04:27;;;;;;;14.68;8.10;;;18.00;99.90;;;;;;5068758;28;20043;-89
2021/06/17 02:06:54;;;;;;;11.57;8.68;;;17.90;99.90;;;;;;5081707;28;20060;-87
2021/06/17 02:09:25;;;;;;;9.90;8.85;;;17.90;99.90;;;;;;5073735;28;20059;-90
2021/06/17 02:11:52;;;;;;;18.10;8.90;;;17.90;99.90;;;;;;5077731;28;20089;-88
2021/06/17 02:14:20;;;;;;;17.23;10.80;;;17.80;99.90;;;;;;5067924;28;20040;-88
2021/06/17 02:16:47;;;;;;;16.10;10.52;;;17.80;99.90;;;;;;5068827;28;20385;-87
2021/06/17 02:19:20;;;;;;;16.05;10.40;;;17.80;99.90;;;;;;5066022;28;20074;-90
2021/06/17 02:21:53;;;;;;;12.02;9.02;;;17.70;99.90;;;;;;5077129;28;20479;-86
2021/06/17 02:24:21;;;;;;;13.93;10.30;;;17.70;99.90;;;;;;5069534;28;20081;-87
2021/06/17 02:26:51;;;;;;;17.35;10.70;;;17.70;99.90;;;;;;5076083;28;20050;-86
2021/06/17 02:29:18;;;;;;;15.27;10.50;;;17.60;99.90;;;;;;5074138;28;20054;-86
2021/06/17 02:31:48;;;;;;;25.58;11.85;;;17.70;99.90;;;;;;5069628;28;20784;-86
2021/06/17 02:34:15;;;;;;;19.05;12.95;;;17.60;99.90;;;;;;5081336;28;20048;-87
2021/06/17 02:36:44;;;;;;;20.35;14.05;;;17.60;99.90;;;;;;5087009;28;20085;-86
2021/06/17 02:39:18;;;;;;;18.95;13.82;;;17.60;99.90;;;;;;5089062;28;20052;-87
2021/06/17 02:41:48;;;;;;;28.40;17.33;;;17.60;99.90;;;;;;5089582;28;20036;-86
2021/06/17 02:44:15;;;;;;;27.02;17.83;;;17.60;99.90;;;;;;5088044;28;20052;-86
2021/06/17 02:46:41;;;;;;;24.10;16.02;;;17.60;99.90;;;;;;5069888;28;20055;-86
2021/06/17 02:49:08;;;;;;;27.38;17.58;;;17.60;99.90;;;;;;5078953;28;20040;-86
2021/06/17 02:51:34;;;;;;;21.42;15.60;;;17.60;99.90;;;;;;5071801;28;20041;-86
2021/06/17 02:54:00;;;;;;;21.92;16.50;;;17.60;99.90;;;;;;5058997;28;20036;-86
2021/06/17 02:57:00;;;;;;;21.98;14.82;;;17.60;99.90;;;;;;5066520;28;20041;-88
2021/06/17 02:59:48;;;;;;;21.75;15.55;;;17.60;99.90;;;;;;5068119;28;20483;-88
2021/06/17 03:02:37;;;;;;;20.15;15.35;;;17.60;99.90;;;;;;5079764;28;20510;-87
2021/06/17 03:05:23;;;;;;;29.38;19.98;;;17.60;99.90;;;;;;5103594;28;20040;-87
2021/06/17 03:07:57;;;;;;;25.70;21.10;;;17.60;99.90;;;;;;5078364;28;20040;-87
2021/06/17 03:10:23;;;;;;;21.92;18.27;;;17.60;99.90;;;;;;5083122;28;20039;-89
2021/06/17 03:12:51;;;;;;;29.30;16.90;;;17.60;99.90;;;;;;5068991;28;20074;-87
2021/06/17 03:15:17;;;;;;;24.20;16.55;;;17.60;99.90;;;;;;5068591;28;20036;-87
2021/06/17 03:17:50;;;;;;;21.30;16.10;;;17.60;99.90;;;;;;5068154;28;20044;-88
2021/06/17 03:20:17;;;;;;;20.10;15.05;;;17.60;99.90;;;;;;5068876;28;20043;-87
2021/06/17 03:22:50;;;;;;;20.58;17.23;;;17.60;99.90;;;;;;5069126;28;20051;-88
2021/06/17 03:25:18;;;;;;;29.55;20.58;;;17.60;99.90;;;;;;5077899;28;20048;-87
2021/06/17 03:27:51;;;;;;;33.53;20.25;;;17.60;99.90;;;;;;5082031;28;20119;-88
2021/06/17 03:30:21;;;;;;;26.90;18.42;;;17.60;99.90;;;;;;5069033;28;20060;-89
2021/06/17 03:32:48;;;;;;;27.60;19.92;;;17.60;99.90;;;;;;5083210;28;20036;-88
2021/06/17 03:35:17;;;;;;;26.13;18.13;;;17.60;99.90;;;;;;5068882;28;20048;-87
2021/06/17 03:37:44;;;;;;;26.45;17.38;;;17.60;99.90;;;;;;5067935;28;20040;-88
2021/06/17 03:40:12;;;;;;;23.50;15.65;;;17.60;99.90;;;;;;5074054;28;20055;-87
2021/06/17 03:42:39;;;;;;;32.17;18.40;;;17.60;99.90;;;;;;5086677;28;20052;-87
2021/06/17 03:45:05;;;;;;;22.52;16.13;;;17.50;99.90;;;;;;5070643;28;20066;-87
2021/06/17 03:47:32;;;;;;;25.95;15.90;;;17.60;99.90;;;;;;5075882;28;20044;-88
2021/06/17 03:49:59;;;;;;;25.17;19.80;;;17.60;99.90;;;;;;5064791;28;20060;-87
2021/06/17 03:52:26;;;;;;;26.42;16.98;;;17.60;99.90;;;;;;5067302;28;20101;-89
2021/06/17 03:54:52;;;;;;;22.33;17.25;;;17.60;99.90;;;;;;5068271;28;20073;-89
2021/06/17 03:57:22;;;;;;;33.90;17.80;;;17.60;99.90;;;;;;5079972;28;20041;-89
2021/06/17 03:59:55;;;;;;;29.25;21.15;;;17.70;99.90;;;;;;5080905;28;20124;-88
2021/06/17 04:02:21;;;;;;;26.90;20.80;;;17.70;99.90;;;;;;5061446;28;20036;-89
2021/06/17 04:04:47;;;;;;;31.98;21.67;;;17.70;99.90;;;;;;5084937;28;20502;-89
2021/06/17 04:07:22;;;;;;;30.35;21.25;;;17.80;99.90;;;;;;5092671;28;20119;-89
2021/06/17 04:09:50;;;;;;;25.67;17.75;;;17.80;99.90;;;;;;5090247;28;20047;-89
2021/06/17 04:12:19;;;;;;;27.40;19.77;;;17.90;99.90;;;;;;5078297;28;20094;-89
2021/06/17 04:14:54;;;;;;;29.02;19.60;;;17.90;99.90;;;;;;5091535;28;20047;-88
2021/06/17 04:17:23;;;;;;;27.13;17.17;;;18.00;99.90;;;;;;5090275;28;20040;-88
2021/06/17 04:19:51;;;;;;;22.67;17.92;;;18.00;99.90;;;;;;5070936;28;20041;-89
2021/06/17 04:22:19;;;;;;;21.33;15.35;;;18.00;99.90;;;;;;5050967;28;20392;-90
2021/06/17 04:24:50;;;;;;;16.85;14.30;;;18.10;99.90;;;;;;5075936;28;20044;-89
2021/06/17 04:27:20;;;;;;;30.65;17.85;;;18.10;99.90;;;;;;5079666;28;20105;-88
2021/06/17 04:29:48;;;;;;;;;;;18.20;99.90;;;;;;5071505;28;20035;-88
2021/06/17 04:32:14;;;;;;;27.20;17.33;;;18.30;99.90;;;;;;5072764;28;19927;-87
2021/06/17 04:34:42;;;;;;;24.83;18.13;;;18.30;99.90;;;;;;5066574;28;20047;-88
2021/06/17 04:37:12;;;;;;;25.95;16.23;;;18.40;99.90;;;;;;5070517;28;20039;-88
2021/06/17 04:39:39;;;;;;;23.48;15.25;;;18.40;99.90;;;;;;5083348;28;20578;-87
2021/06/17 04:42:06;;;;;;;29.70;17.25;;;18.50;99.90;;;;;;5069770;28;20063;-87
2021/06/17 04:44:33;;;;;;;21.08;16.67;;;18.60;99.90;;;;;;5067184;28;20526;-89
2021/06/17 04:47:00;;;;;;;23.58;15.95;;;18.70;99.90;;;;;;5073248;28;20040;-87
2021/06/17 04:49:29;;;;;;;26.23;15.65;;;18.70;99.90;;;;;;5078578;28;20049;-87
2021/06/17 04:51:56;;;;;;;22.30;15.77;;;18.90;99.90;;;;;;5068966;28;20459;-88
2021/06/17 04:54:22;;;;;;;20.80;15.57;;;18.90;99.90;;;;;;5082571;28;20044;-88
2021/06/17 04:56:48;;;;;;;20.10;14.23;;;19.00;99.90;;;;;;5068912;28;20048;-88
2021/06/17 04:59:14;;;;;;;27.77;17.00;;;19.10;99.90;;;;;;5071097;28;20040;-86
2021/06/17 05:01:41;;;;;;;19.75;15.52;;;19.20;99.90;;;;;;5063610;28;20040;-87
2021/06/17 05:04:10;;;;;;;22.23;15.80;;;19.30;99.90;;;;;;5079614;28;20040;-87
2021/06/17 05:06:39;;;;;;;20.60;15.45;;;19.40;99.90;;;;;;5070141;28;20651;-88
2021/06/17 05:11:52;;;;;;;22.75;15.38;;;19.50;99.90;;;;;;5063106;28;20050;-86
2021/06/17 05:14:21;;;;;;;23.38;16.80;;;19.60;99.90;;;;;;5066436;28;20040;-87
2021/06/17 05:16:47;;;;;;;;;;;19.70;99.90;;;;;;5045764;28;20090;-86
2021/06/17 05:19:15;;;;;;;25.50;15.75;;;19.80;99.90;;;;;;5087572;28;19924;-86
2021/06/17 05:21:42;;;;;;;23.40;16.15;;;19.90;99.90;;;;;;5077107;28;20044;-87
2021/06/17 05:24:08;;;;;;;21.65;15.95;;;19.90;99.90;;;;;;5072409;28;20054;-86
2021/06/17 05:26:57;;;;;;;16.30;14.40;;;20.00;99.90;;;;;;5078082;28;20051;-86
2021/06/17 05:29:23;;;;;;;16.60;13.50;;;20.10;99.90;;;;;;5087930;28;20044;-88
2021/06/17 05:31:49;;;;;;;21.50;14.60;;;20.10;99.90;;;;;;5060312;28;20051;-87
2021/06/17 05:34:15;;;;;;;21.13;14.60;;;20.20;99.90;;;;;;5089047;28;20040;-87
2021/06/17 05:36:40;;;;;;;19.63;15.13;;;20.30;99.90;;;;;;5087804;28;20119;-88
2021/06/17 05:39:06;;;;;;;21.17;14.98;;;20.40;99.90;;;;;;5078140;28;20411;-87
2021/06/17 05:41:32;;;;;;;17.05;14.23;;;20.50;99.90;;;;;;5086617;28;20087;-86
2021/06/17 05:43:58;;;;;;;21.95;15.32;;;20.60;99.90;;;;;;5088211;28;20056;-85
2021/06/17 05:46:24;;;;;;;21.58;15.35;;;20.60;99.90;;;;;;5086281;28;20234;-89
2021/06/17 05:48:50;;;;;;;16.92;13.85;;;20.80;99.90;;;;;;5107125;28;20088;-88
2021/06/17 05:51:16;;;;;;;18.52;13.35;;;20.80;99.90;;;;;;5106211;28;20479;-87
2021/06/17 05:53:42;;;;;;;21.15;13.52;;;20.90;99.90;;;;;;5107628;28;20132;-88
2021/06/17 05:56:07;;;;;;;19.42;12.35;;;21.00;99.90;;;;;;5125020;27;20467;-87
2021/06/17 05:58:35;;;;;;;16.20;13.15;;;21.10;99.90;;;;;;5072332;28;20044;-88
2021/06/17 06:01:02;;;;;;;15.30;12.45;;;21.10;99.90;;;;;;5064706;28;20398;-88
2021/06/17 06:03:28;;;;;;;18.48;12.35;;;21.20;99.90;;;;;;5091303;28;20544;-89
2021/06/17 06:05:53;;;;;;;16.65;12.57;;;21.30;99.90;;;;;;5086041;28;20044;-90
2021/06/17 06:08:22;;;;;;;19.63;12.50;;;21.40;99.90;;;;;;5087142;28;20403;-89
2021/06/17 06:10:48;;;;;;;16.23;12.80;;;21.50;99.90;;;;;;5089450;28;20044;-89
2021/06/17 06:13:15;;;;;;;15.00;11.88;;;21.60;99.90;;;;;;5090413;28;20101;-90
2021/06/17 06:15:41;;;;;;;16.15;12.00;;;21.70;99.90;;;;;;5053758;28;20151;-89
2021/06/17 06:18:15;;;;;;;14.38;11.38;;;21.80;99.90;;;;;;5087524;28;20111;-90
2021/06/17 06:20:44;;;;;;;16.90;12.43;;;21.90;99.90;;;;;;5090924;28;20040;-89
2021/06/17 06:23:11;;;;;;;16.35;11.73;;;22.00;99.90;;;;;;5091776;28;20052;-90
2021/06/17 06:25:38;;;;;;;16.17;11.63;;;22.10;99.90;;;;;;5091505;28;20032;-88
2021/06/17 06:28:05;;;;;;;16.17;11.55;;;22.20;99.90;;;;;;5092671;28;20118;-90
2021/06/17 06:30:31;;;;;;;13.45;10.98;;;22.30;99.90;;;;;;5090565;28;20105;-89
2021/06/17 06:32:57;;;;;;;14.52;10.38;;;22.40;99.90;;;;;;5091045;28;20046;-89
2021/06/17 06:35:24;;;;;;;14.98;11.68;;;22.40;99.90;;;;;;5091283;28;20040;-87
2021/06/17 06:37:50;;;;;;;17.50;9.50;;;22.50;99.90;;;;;;5087581;28;20044;-86
2021/06/17 06:40:23;;;;;;;17.35;10.98;;;22.60;99.90;;;;;;5093017;28;20541;-87
2021/06/17 06:42:49;;;;;;;15.02;11.05;;;22.70;99.90;;;;;;5092416;28;20139;-89
2021/06/17 06:45:15;;;;;;;15.95;9.82;;;22.80;99.90;;;;;;5077781;28;20047;-91
2021/06/17 06:47:41;;;;;;;13.63;8.15;;;22.90;99.90;;;;;;5091437;28;20075;-91
2021/06/17 06:50:09;;;;;;;8.43;7.65;;;23.00;99.90;;;;;;5095019;28;20092;-90
2021/06/17 06:52:35;;;;;;;11.20;7.80;;;23.10;99.90;;;;;;5101402;28;20097;-91
2021/06/17 06:55:03;;;;;;;17.92;8.30;;;23.20;99.90;;;;;;5089379;28;20048;-91
2021/06/17 06:57:29;;;;;;;11.95;7.60;;;23.30;99.90;;;;;;5092642;28;20040;-91
2021/06/17 06:59:55;;;;;;;10.55;7.30;;;23.40;99.90;;;;;;5085220;28;20089;-90
2021/06/17 07:02:21;;;;;;;11.38;7.07;;;23.50;99.90;;;;;;5088097;28;20043;-91
2021/06/17 07:04:47;;;;;;;12.30;7.20;;;23.60;99.90;;;;;;5073663;28;20043;-91
2021/06/17 07:07:13;;;;;;;17.55;7.60;;;23.70;99.90;;;;;;5081697;28;20044;-91
2021/06/17 07:09:39;;;;;;;10.27;6.65;;;23.80;99.90;;;;;;5084518;28;20044;-93
2021/06/17 07:12:05;;;;;;;10.25;6.50;;;23.90;99.90;;;;;;5088830;28;20043;-89
2021/06/17 07:14:32;;;;;;;10.98;7.07;;;24.00;99.90;;;;;;5087982;28;20067;-91
2021/06/17 07:16:59;;;;;;;9.23;7.32;;;24.10;99.90;;;;;;5087287;28;20036;-91
2021/06/17 07:19:25;;;;;;;12.80;7.70;;;24.20;99.90;;;;;;5084482;28;20478;-91
2021/06/17 07:21:51;;;;;;;7.38;6.22;;;24.20;99.90;;;;;;5059998;28;20036;-91
2021/06/17 07:24:17;;;;;;;8.60;6.38;;;24.40;99.90;;;;;;5075000;28;20499;-91
2021/06/17 07:26:43;;;;;;;8.30;6.05;;;24.40;99.90;;;;;;5071210;28;20048;-91
2021/06/17 07:29:10;;;;;;;10.93;6.30;;;24.50;99.90;;;;;;5074121;28;20055;-91
2021/06/17 07:31:38;;;;;;;8.40;5.97;;;24.60;99.90;;;;;;5070866;28;20032;-92
2021/06/17 07:34:08;;;;;;;12.55;6.40;;;24.70;99.90;;;;;;5087432;28;20032;-92
2021/06/17 07:36:35;;;;;;;10.88;6.72;;;24.80;99.90;;;;;;5089086;28;20514;-90
2021/06/17 07:39:02;;;;;;;10.98;6.28;;;24.90;99.90;;;;;;5076848;28;20087;-92
2021/06/17 07:41:28;;;;;;;10.85;6.13;;;24.90;99.90;;;;;;5075854;28;20040;-90
2021/06/17 07:43:54;;;;;;;10.07;6.20;;;25.00;99.90;;;;;;5092142;28;20565;-91
2021/06/17 07:46:20;;;;;;;11.82;5.70;;;25.10;99.90;;;;;;5073566;28;20064;-91
2021/06/17 07:48:46;;;;;;;8.25;5.88;;;25.30;99.90;;;;;;5061876;28;20115;-91
2021/06/17 07:51:12;;;;;;;7.38;5.28;;;25.40;99.90;;;;;;5075029;28;20044;-92
2021/06/17 07:53:38;;;;;;;13.65;6.40;;;25.40;99.90;;;;;;5087524;28;20040;-92
2021/06/17 07:56:04;;;;;;;11.85;5.72;;;25.50;99.90;;;;;;5082376;28;20103;-91
2021/06/17 07:58:30;;;;;;;7.57;5.20;;;25.60;99.90;;;;;;5078255;28;20123;-91
2021/06/17 08:00:56;;;;;;;10.10;4.75;;;25.70;99.90;;;;;;5073885;28;20046;-91
2021/06/17 08:03:22;;;;;;;15.25;6.03;;;25.70;99.90;;;;;;5087396;28;20032;-91
2021/06/17 08:05:47;;;;;;;10.95;5.22;;;25.80;99.90;;;;;;5054348;28;20040;-92
2021/06/17 08:08:13;;;;;;;11.88;5.57;;;25.90;99.90;;;;;;5055221;28;20139;-91
2021/06/17 08:10:40;;;;;;;7.60;5.45;;;26.00;99.90;;;;;;5057217;28;20044;-91
2021/06/17 08:13:06;;;;;;;7.15;5.32;;;26.10;99.90;;;;;;5073955;28;20044;-92
2021/06/17 08:15:32;;;;;;;8.52;5.25;;;26.20;99.90;;;;;;5091205;28;20449;-91
2021/06/17 08:17:58;;;;;;;15.55;5.50;;;26.20;99.90;;;;;;5090522;28;20555;-91
2021/06/17 08:20:24;;;;;;;8.50;4.88;;;26.20;99.90;;;;;;5091374;28;20115;-90
2021/06/17 08:22:50;;;;;;;8.15;5.38;;;26.30;99.90;;;;;;5073422;28;20040;-92
2021/06/17 08:25:16;;;;;;;11.52;4.70;;;26.50;99.90;;;;;;5080933;28;20548;-92
2021/06/17 08:27:42;;;;;;;6.82;4.82;;;26.60;99.90;;;;;;5077368;28;20040;-91
2021/06/17 08:30:14;;;;;;;6.20;4.80;;;26.60;99.90;;;;;;5083768;28;20562;-91
2021/06/17 08:32:41;;;;;;;6.93;4.78;;;26.80;99.90;;;;;;5087181;28;20044;-91
2021/06/17 08:35:07;;;;;;;7.63;5.35;;;26.80;99.90;;;;;;5077099;28;20556;-91
2021/06/17 08:37:33;;;;;;;6.78;4.68;;;26.90;99.90;;;;;;5090965;28;20093;-91
2021/06/17 08:39:59;;;;;;;8.43;4.85;;;26.90;99.90;;;;;;5085015;28;20037;-90
2021/06/17 08:42:27;;;;;;;7.20;5.25;;;27.00;99.90;;;;;;5078170;28;20061;-91
2021/06/17 08:44:54;;;;;;;9.73;4.97;;;27.10;99.90;;;;;;5086540;28;20040;-92
2021/06/17 08:47:20;;;;;;;5.85;4.80;;;27.20;99.90;;;;;;5081431;28;20060;-92
2021/06/17 08:49:48;;;;;;;13.27;6.00;;;27.40;99.90;;;;;;5068811;28;20398;-92
2021/06/17 08:52:16;;;;;;;12.90;4.63;;;27.50;99.90;;;;;;5083745;28;20056;-91
2021/06/17 08:54:42;;;;;;;7.50;4.60;;;27.60;99.90;;;;;;5071868;28;20051;-91
2021/06/17 08:57:07;;;;;;;14.82;4.93;;;27.70;99.90;;;;;;5103988;28;20040;-93
2021/06/17 08:59:38;;;;;;;4.53;4.13;;;27.80;99.90;;;;;;5090000;28;20069;-91
2021/06/17 09:02:04;;;;;;;9.13;4.15;;;27.90;99.90;;;;;;5071814;28;20479;-92
2021/06/17 09:04:31;;;;;;;13.10;4.55;;;27.90;99.90;;;;;;5080816;28;20050;-90
2021/06/17 09:07:05;;;;;;;7.60;4.95;;;28.00;99.90;;;;;;5076248;28;20067;-91
2021/06/17 09:09:45;;;;;;;12.10;4.25;;;28.00;99.90;;;;;;5090141;28;20079;-90
2021/06/17 09:12:15;;;;;;;3.97;3.67;;;28.10;99.90;;;;;;5075545;28;20044;-91
2021/06/17 09:14:51;;;;;;;8.00;3.88;;;28.20;99.90;;;;;;5076622;28;20094;-91
2021/06/17 09:17:17;;;;;;;5.20;4.20;;;28.20;99.90;;;;;;5090857;28;20043;-92
2021/06/17 09:19:43;;;;;;;4.93;3.58;;;28.30;99.90;;;;;;5083928;28;20507;-92
2021/06/17 09:22:12;;;;;;;9.98;4.20;;;28.40;99.90;;;;;;5064379;28;20052;-92
2021/06/17 09:24:39;;;;;;;7.40;4.10;;;28.50;99.90;;;;;;5086305;28;20051;-91
2021/06/17 09:27:34;;;;;;;11.32;4.57;;;28.60;99.90;;;;;;5062663;28;20076;-90
2021/06/17 09:30:12;;;;;;;6.63;4.40;;;28.70;99.90;;;;;;5071406;28;20082;-90
2021/06/17 09:32:45;;;;;;;6.32;4.50;;;28.80;99.90;;;;;;5074729;28;20484;-91
2021/06/17 09:35:22;;;;;;;6.45;3.80;;;28.90;99.90;;;;;;5076000;28;20036;-90
2021/06/17 09:37:48;;;;;;;10.57;4.10;;;28.90;99.90;;;;;;5076500;28;20045;-91
2021/06/17 09:40:24;;;;;;;3.90;3.55;;;29.00;99.90;;;;;;5085291;28;20074;-93
2021/06/17 09:42:50;;;;;;;12.85;3.90;;;29.10;99.90;;;;;;5083205;28;20076;-91
2021/06/17 09:45:21;;;;;;;8.10;4.50;;;29.20;99.90;;;;;;5058118;28;20052;-91
2021/06/17 09:47:47;;;;;;;8.73;4.28;;;29.20;99.90;;;;;;5086138;28;20486;-90
2021/06/17 09:50:25;;;;;;;4.95;4.07;;;29.20;99.90;;;;;;5087268;28;20479;-91
2021/06/17 09:52:51;;;;;;;8.82;3.70;;;29.30;99.90;;;;;;5076290;28;20041;-91
2021/06/17 09:55:40;;;;;;;11.82;3.90;;;29.40;99.90;;;;;;5074284;28;20081;-91
2021/06/17 09:58:29;;;;;;;;;;;29.50;99.90;;;;;;5075566;28;20055;-91
2021/06/17 10:00:56;;;;;;;12.80;4.00;;;29.50;99.90;;;;;;5085651;28;19932;-93
2021/06/17 10:03:22;;;;;;;7.63;3.50;;;29.60;99.90;;;;;;5076255;28;20037;-92
2021/06/17 10:05:48;;;;;;;7.20;3.80;;;29.70;99.90;;;;;;5052128;28;20048;-90
2021/06/17 10:08:14;;;;;;;7.05;3.80;;;29.80;99.90;;;;;;5051334;28;20594;-92
2021/06/17 10:10:40;;;;;;;8.23;4.13;;;29.90;99.90;;;;;;5082279;28;20044;-93
2021/06/17 10:13:08;;;;;;;3.90;3.58;;;30.00;99.90;;;;;;5083461;28;20047;-90
2021/06/17 10:15:35;;;;;;;6.10;3.55;;;30.00;99.90;;;;;;5089129;28;20118;-91
2021/06/17 10:18:01;;;;;;;5.00;3.53;;;30.10;99.90;;;;;;5051832;28;20053;-90
2021/06/17 10:20:27;;;;;;;5.25;3.58;;;30.20;99.90;;;;;;5082006;28;20044;-89
2021/06/17 10:22:56;;;;;;;4.15;3.55;;;30.30;99.90;;;;;;5094929;28;20490;-89
2021/06/17 10:25:34;;;;;;;8.85;3.47;;;30.30;99.90;;;;;;5092941;28;20127;-88
2021/06/17 10:28:01;;;;;;;5.65;3.00;;;30.30;99.90;;;;;;5099105;28;20136;-90
2021/06/17 10:30:48;;;;;;;4.68;2.60;;;30.40;99.90;;;;;;5093400;28;20184;-90
2021/06/17 10:33:27;;;;;;;5.80;2.90;;;30.50;98.90;;;;;;5077260;28;20044;-91
2021/06/17 10:36:13;;;;;;;7.15;2.97;;;30.50;99.10;;;;;;5110188;27;20143;-90
2021/06/17 10:39:10;;;;;;;7.47;3.00;;;30.60;99.90;;;;;;5087328;28;20032;-91
2021/06/17 10:41:55;;;;;;;3.95;3.10;;;30.80;98.40;;;;;;5076517;28;20058;-91
2021/06/17 10:44:42;;;;;;;3.72;2.53;;;30.70;97.00;;;;;;5091767;28;20048;-91
2021/06/17 10:47:08;;;;;;;2.88;2.40;;;30.90;98.80;;;;;;5086654;28;20028;-90
2021/06/17 10:49:49;;;;;;;3.25;2.28;;;30.90;97.90;;;;;;5056596;28;20044;-92
2021/06/17 10:52:29;;;;;;;5.90;2.60;;;31.00;95.90;;;;;;5092755;28;20115;-90
2021/06/17 10:55:05;;;;;;;3.40;2.33;;;31.00;95.70;;;;;;5093691;28;20044;-90
2021/06/17 10:57:50;;;;;;;4.95;2.22;;;31.00;95.80;;;;;;5078978;28;20039;-90
2021/06/17 11:00:23;;;;;;;3.90;2.05;;;31.10;95.90;;;;;;5094868;28;20482;-92
2021/06/17 11:02:54;;;;;;;2.22;2.03;;;31.20;93.70;;;;;;5093270;28;20161;-90
2021/06/17 11:05:29;;;;;;;2.78;2.10;;;31.20;94.10;;;;;;5095264;28;20181;-92
2021/06/17 11:08:16;;;;;;;5.78;2.10;;;31.30;93.80;;;;;;5093544;28;20044;-90
2021/06/17 11:11:01;;;;;;;4.18;2.20;;;31.40;93.70;;;;;;5087937;28;20136;-91
2021/06/17 11:13:28;;;;;;;5.68;2.10;;;31.50;94.60;;;;;;5091333;28;20040;-91
2021/06/17 11:15:56;;;;;;;2.38;2.03;;;31.50;95.20;;;;;;5092534;28;20040;-91
2021/06/17 11:18:44;;;;;;;3.63;1.92;;;31.70;96.20;;;;;;5082894;28;20127;-91
2021/06/17 11:21:26;;;;;;;;;;;31.80;94.00;;;;;;5087075;28;20044;-91
2021/06/17 11:23:58;;;;;;;6.57;2.00;;;31.90;92.10;;;;;;5087070;28;19920;-90
2021/06/17 11:26:53;;;;;;;2.67;2.35;;;31.90;90.10;;;;;;5092864;28;20388;-89
2021/06/17 11:29:21;;;;;;;1.90;1.80;;;32.00;91.50;;;;;;5092221;28;20043;-90
2021/06/17 11:31:49;;;;;;;4.65;2.03;;;32.00;91.40;;;;;;5089349;28;20036;-90
2021/06/17 11:34:37;;;;;;;4.35;1.80;;;32.10;91.50;;;;;;5092294;28;20044;-90
2021/06/17 11:37:11;;;;;;;5.32;2.10;;;32.20;91.50;;;;;;5091563;28;20039;-91
2021/06/17 11:39:37;;;;;;;3.53;1.92;;;32.20;91.00;;;;;;5091268;28;20599;-89
2021/06/17 11:42:05;;;;;;;2.80;1.73;;;32.20;88.80;;;;;;5090186;28;20040;-90
2021/06/17 11:44:32;;;;;;;2.50;2.03;;;32.30;91.60;;;;;;5093486;28;20555;-90
2021/06/17 11:47:16;;;;;;;2.70;1.70;;;32.40;92.40;;;;;;5107269;27;20498;-90
2021/06/17 11:49:44;;;;;;;5.63;2.00;;;32.60;89.50;;;;;;5090316;28;20039;-91
2021/06/17 11:52:20;;;;;;;3.72;1.50;;;32.60;88.20;;;;;;5090465;28;20123;-92
2021/06/17 11:54:48;;;;;;;2.05;1.65;;;32.70;87.00;;;;;;5075544;28;20443;-90
2021/06/17 11:57:15;;;;;;;5.32;1.80;;;32.70;90.20;;;;;;5093658;28;20036;-91
2021/06/17 11:59:50;;;;;;;4.38;1.55;;;32.80;85.90;;;;;;5075024;28;20040;-91
2021/06/17 12:02:33;;;;;;;3.67;1.70;;;32.80;86.20;;;;;;5085993;28;20069;-89
2021/06/17 12:05:04;;;;;;;9.15;1.70;;;32.80;86.60;;;;;;5093388;28;20036;-90
2021/06/17 12:07:49;;;;;;;2.20;1.70;;;32.70;82.10;;;;;;5106378;27;20036;-91
2021/06/17 12:10:28;;;;;;;1.92;1.60;;;32.70;82.70;;;;;;5075720;28;20032;-90
2021/06/17 12:13:04;;;;;;;8.13;1.67;;;32.80;84.60;;;;;;5090178;28;20047;-92
2021/06/17 12:15:40;;;;;;;7.47;1.45;;;32.90;84.20;;;;;;5109057;27;20117;-92
2021/06/17 12:18:14;;;;;;;4.40;1.85;;;33.00;82.80;;;;;;5074143;28;20098;-92
2021/06/17 12:20:45;;;;;;;3.47;1.85;;;33.10;81.00;;;;;;5094330;28;20051;-89
2021/06/17 12:23:24;;;;;;;5.30;1.80;;;33.10;83.40;;;;;;5087920;28;20059;-91
2021/06/17 12:26:16;;;;;;;4.40;1.40;;;33.20;80.80;;;;;;5099380;28;20043;-92
2021/06/17 12:28:54;;;;;;;3.75;1.70;;;33.20;80.10;;;;;;5072935;28;20063;-90
2021/06/17 12:31:36;;;;;;;5.80;1.80;;;33.30;82.80;;;;;;5101176;28;20536;-90
2021/06/17 12:34:16;;;;;;;4.20;1.83;;;33.40;81.10;;;;;;5094990;28;20043;-91
2021/06/17 12:36:44;;;;;;;6.38;2.22;;;33.40;81.00;;;;;;5079603;28;20052;-90
2021/06/17 12:39:21;;;;;;;2.20;1.50;;;33.60;81.00;;;;;;5074545;28;20063;-92
2021/06/17 12:41:49;;;;;;;4.63;1.23;;;33.90;79.70;;;;;;5088081;28;20114;-90
2021/06/17 12:44:35;;;;;;;5.20;1.70;;;34.10;79.30;;;;;;5104554;28;20143;-89
2021/06/17 12:47:05;;;;;;;5.75;1.67;;;34.20;77.30;;;;;;5094304;28;20064;-91
2021/06/17 12:52:26;;;;;;;2.25;1.50;;;34.50;75.90;;;;;;5083028;28;20438;-90
2021/06/17 12:54:52;;;;;;;1.35;1.30;;;34.60;75.10;;;;;;5081478;28;20476;-89
2021/06/17 12:57:20;;;;;;;1.70;1.30;;;34.90;72.70;;;;;;5092034;28;20059;-89